sensor_id;sensor_type;location;lat;lon;timestamp;P1;durP1;ratioP1;P2;durP2;ratioP2
15317;SDS011;7759;52.528;13.346;2023-08-20T00:00:56;12.18;;;10.07;;
15317;SDS011;7759;52.528;13.346;2023-08-20T00:03:22;11.38;;;9.43;;
15317;SDS011;7759;52.528;13.346;2023-08-20T00:05:48;9.77;;;8.75;;
15317;SDS011;7759;52.528;13.346;2023-08-20T00:08:14;10.38;;;8.75;;
15317;SDS011;7759;52.528;13.346;2023-08-20T00:10:41;10.43;;;9.10;;
15317;SDS011;7759;52.528;13.346;2023-08-20T00:13:07;10.35;;;9.10;;
15317;SDS011;7759;52.528;13.346;2023-08-20T00:15:34;10.63;;;8.52;;
15317;SDS011;7759;52.528;13.346;2023-08-20T00:18:00;11.57;;;9.35;;
15317;SDS011;7759;52.528;13.346;2023-08-20T00:20:26;11.30;;;9.27;;
15317;SDS011;7759;52.528;13.346;2023-08-20T00:22:53;10.18;;;8.88;;
15317;SDS011;7759;52.528;13.346;2023-08-20T00:25:19;10.52;;;9.48;;
15317;SDS011;7759;52.528;13.346;2023-08-20T00:27:45;10.50;;;9.00;;
15317;SDS011;7759;52.528;13.346;2023-08-20T00:30:12;12.95;;;8.93;;
15317;SDS011;7759;52.528;13.346;2023-08-20T00:32:39;11.65;;;8.80;;
15317;SDS011;7759;52.528;13.346;2023-08-20T00:35:05;11.65;;;8.98;;
15317;SDS011;7759;52.528;13.346;2023-08-20T00:37:32;9.90;;;8.90;;
15317;SDS011;7759;52.528;13.346;2023-08-20T00:39:58;10.13;;;9.00;;
15317;SDS011;7759;52.528;13.346;2023-08-20T00:42:26;10.38;;;8.80;;
15317;SDS011;7759;52.528;13.346;2023-08-20T00:44:52;12.23;;;10.05;;
15317;SDS011;7759;52.528;13.346;2023-08-20T00:47:18;11.18;;;9.70;;
15317;SDS011;7759;52.528;13.346;2023-08-20T00:49:45;10.68;;;9.57;;
15317;SDS011;7759;52.528;13.346;2023-08-20T00:52:12;14.32;;;9.18;;
15317;SDS011;7759;52.528;13.346;2023-08-20T00:54:42;9.60;;;8.60;;
15317;SDS011;7759;52.528;13.346;2023-08-20T00:57:11;13.13;;;9.43;;
15317;SDS011;7759;52.528;13.346;2023-08-20T00:59:37;10.13;;;8.38;;
15317;SDS011;7759;52.528;13.346;2023-08-20T01:02:03;9.63;;;8.50;;
15317;SDS011;7759;52.528;13.346;2023-08-20T01:04:30;10.52;;;8.88;;
15317;SDS011;7759;52.528;13.346;2023-08-20T01:07:04;10.68;;;8.27;;
15317;SDS011;7759;52.528;13.346;2023-08-20T01:12:03;10.20;;;8.20;;
15317;SDS011;7759;52.528;13.346;2023-08-20T01:14:29;9.55;;;8.20;;
15317;SDS011;7759;52.528;13.346;2023-08-20T01:16:55;12.32;;;8.60;;
15317;SDS011;7759;52.528;13.346;2023-08-20T01:19:21;8.75;;;7.85;;
15317;SDS011;7759;52.528;13.346;2023-08-20T01:24:26;9.88;;;8.38;;
15317;SDS011;7759;52.528;13.346;2023-08-20T01:27:08;13.50;;;8.43;;
15317;SDS011;7759;52.528;13.346;2023-08-20T01:29:36;9.23;;;8.25;;
15317;SDS011;7759;52.528;13.346;2023-08-20T01:32:02;9.25;;;8.10;;
15317;SDS011;7759;52.528;13.346;2023-08-20T01:34:29;10.02;;;8.60;;
15317;SDS011;7759;52.528;13.346;2023-08-20T01:36:55;11.07;;;8.68;;
15317;SDS011;7759;52.528;13.346;2023-08-20T01:39:21;8.90;;;8.00;;
15317;SDS011;7759;52.528;13.346;2023-08-20T01:41:48;10.25;;;8.30;;
15317;SDS011;7759;52.528;13.346;2023-08-20T01:44:14;9.00;;;8.07;;
15317;SDS011;7759;52.528;13.346;2023-08-20T01:46:40;12.18;;;8.43;;
15317;SDS011;7759;52.528;13.346;2023-08-20T01:49:06;12.88;;;7.68;;
15317;SDS011;7759;52.528;13.346;2023-08-20T01:51:32;11.52;;;8.02;;
15317;SDS011;7759;52.528;13.346;2023-08-20T01:53:58;11.50;;;8.80;;
15317;SDS011;7759;52.528;13.346;2023-08-20T01:56:24;11.93;;;8.20;;
15317;SDS011;7759;52.528;13.346;2023-08-20T01:58:50;12.05;;;8.68;;
15317;SDS011;7759;52.528;13.346;2023-08-20T02:01:17;12.63;;;8.32;;
15317;SDS011;7759;52.528;13.346;2023-08-20T02:03:43;10.63;;;8.25;;
15317;SDS011;7759;52.528;13.346;2023-08-20T02:06:08;10.32;;;8.15;;
15317;SDS011;7759;52.528;13.346;2023-08-20T02:08:34;8.85;;;7.95;;
15317;SDS011;7759;52.528;13.346;2023-08-20T02:11:04;11.00;;;8.23;;
15317;SDS011;7759;52.528;13.346;2023-08-20T02:13:30;9.55;;;7.88;;
15317;SDS011;7759;52.528;13.346;2023-08-20T02:15:57;11.13;;;8.02;;
15317;SDS011;7759;52.528;13.346;2023-08-20T02:18:23;9.65;;;8.00;;
15317;SDS011;7759;52.528;13.346;2023-08-20T02:20:49;10.27;;;7.78;;
15317;SDS011;7759;52.528;13.346;2023-08-20T02:23:15;9.35;;;7.93;;
15317;SDS011;7759;52.528;13.346;2023-08-20T02:25:40;8.50;;;7.47;;
15317;SDS011;7759;52.528;13.346;2023-08-20T02:28:06;8.98;;;8.02;;
15317;SDS011;7759;52.528;13.346;2023-08-20T02:30:37;9.95;;;7.95;;
15317;SDS011;7759;52.528;13.346;2023-08-20T02:33:03;8.63;;;7.72;;
15317;SDS011;7759;52.528;13.346;2023-08-20T02:35:30;7.85;;;6.95;;
15317;SDS011;7759;52.528;13.346;2023-08-20T02:37:56;7.93;;;7.00;;
15317;SDS011;7759;52.528;13.346;2023-08-20T02:40:22;10.02;;;8.05;;
15317;SDS011;7759;52.528;13.346;2023-08-20T02:42:47;9.07;;;7.28;;
15317;SDS011;7759;52.528;13.346;2023-08-20T02:45:13;11.82;;;8.02;;
15317;SDS011;7759;52.528;13.346;2023-08-20T02:47:39;9.13;;;7.30;;
15317;SDS011;7759;52.528;13.346;2023-08-20T02:50:05;8.43;;;7.35;;
15317;SDS011;7759;52.528;13.346;2023-08-20T02:52:31;9.70;;;7.60;;
15317;SDS011;7759;52.528;13.346;2023-08-20T02:54:57;10.02;;;7.43;;
15317;SDS011;7759;52.528;13.346;2023-08-20T02:57:23;9.10;;;7.35;;
15317;SDS011;7759;52.528;13.346;2023-08-20T02:59:49;8.90;;;7.30;;
15317;SDS011;7759;52.528;13.346;2023-08-20T03:02:15;12.00;;;7.50;;
15317;SDS011;7759;52.528;13.346;2023-08-20T03:04:42;9.77;;;6.68;;
15317;SDS011;7759;52.528;13.346;2023-08-20T03:07:08;9.35;;;7.40;;
15317;SDS011;7759;52.528;13.346;2023-08-20T03:09:34;8.43;;;6.72;;
15317;SDS011;7759;52.528;13.346;2023-08-20T03:12:00;7.25;;;6.45;;
15317;SDS011;7759;52.528;13.346;2023-08-20T03:14:26;9.52;;;6.70;;
15317;SDS011;7759;52.528;13.346;2023-08-20T03:16:51;10.57;;;7.25;;
15317;SDS011;7759;52.528;13.346;2023-08-20T03:19:17;7.65;;;6.45;;
15317;SDS011;7759;52.528;13.346;2023-08-20T03:21:43;9.25;;;7.57;;
15317;SDS011;7759;52.528;13.346;2023-08-20T03:24:09;8.90;;;6.80;;
15317;SDS011;7759;52.528;13.346;2023-08-20T03:26:35;10.45;;;7.15;;
15317;SDS011;7759;52.528;13.346;2023-08-20T03:29:01;7.45;;;6.40;;
15317;SDS011;7759;52.528;13.346;2023-08-20T03:31:28;8.77;;;6.70;;
15317;SDS011;7759;52.528;13.346;2023-08-20T03:33:54;8.57;;;6.43;;
15317;SDS011;7759;52.528;13.346;2023-08-20T03:36:20;11.07;;;7.00;;
15317;SDS011;7759;52.528;13.346;2023-08-20T03:38:45;8.68;;;6.78;;
15317;SDS011;7759;52.528;13.346;2023-08-20T03:41:11;6.75;;;5.93;;
15317;SDS011;7759;52.528;13.346;2023-08-20T03:43:37;9.20;;;6.72;;
15317;SDS011;7759;52.528;13.346;2023-08-20T03:46:03;7.28;;;6.15;;
15317;SDS011;7759;52.528;13.346;2023-08-20T03:48:29;8.85;;;6.28;;
15317;SDS011;7759;52.528;13.346;2023-08-20T03:50:55;7.90;;;6.30;;
15317;SDS011;7759;52.528;13.346;2023-08-20T03:53:21;8.13;;;6.63;;
15317;SDS011;7759;52.528;13.346;2023-08-20T03:55:50;9.23;;;6.50;;
15317;SDS011;7759;52.528;13.346;2023-08-20T03:58:17;8.55;;;6.68;;
15317;SDS011;7759;52.528;13.346;2023-08-20T04:00:43;8.63;;;7.20;;
15317;SDS011;7759;52.528;13.346;2023-08-20T04:03:09;7.82;;;6.35;;
15317;SDS011;7759;52.528;13.346;2023-08-20T04:05:38;7.68;;;6.32;;
15317;SDS011;7759;52.528;13.346;2023-08-20T04:08:05;9.88;;;6.63;;
15317;SDS011;7759;52.528;13.346;2023-08-20T04:10:31;7.95;;;6.25;;
15317;SDS011;7759;52.528;13.346;2023-08-20T04:12:58;10.05;;;6.88;;
15317;SDS011;7759;52.528;13.346;2023-08-20T04:15:24;8.93;;;7.35;;
15317;SDS011;7759;52.528;13.346;2023-08-20T04:17:50;10.02;;;6.95;;
15317;SDS011;7759;52.528;13.346;2023-08-20T04:20:16;8.30;;;6.30;;
15317;SDS011;7759;52.528;13.346;2023-08-20T04:22:42;12.07;;;6.40;;
15317;SDS011;7759;52.528;13.346;2023-08-20T04:25:07;11.82;;;7.40;;
15317;SDS011;7759;52.528;13.346;2023-08-20T04:27:33;9.32;;;6.57;;
15317;SDS011;7759;52.528;13.346;2023-08-20T04:30:01;8.95;;;6.43;;
15317;SDS011;7759;52.528;13.346;2023-08-20T04:32:27;9.02;;;6.70;;
15317;SDS011;7759;52.528;13.346;2023-08-20T04:34:53;10.68;;;7.15;;
15317;SDS011;7759;52.528;13.346;2023-08-20T04:37:19;9.43;;;6.75;;
15317;SDS011;7759;52.528;13.346;2023-08-20T04:39:45;8.13;;;6.88;;
15317;SDS011;7759;52.528;13.346;2023-08-20T04:42:14;8.80;;;7.40;;
15317;SDS011;7759;52.528;13.346;2023-08-20T04:44:40;8.63;;;7.05;;
15317;SDS011;7759;52.528;13.346;2023-08-20T04:47:08;8.55;;;6.88;;
15317;SDS011;7759;52.528;13.346;2023-08-20T04:49:36;10.65;;;7.53;;
15317;SDS011;7759;52.528;13.346;2023-08-20T04:52:02;9.05;;;6.93;;
15317;SDS011;7759;52.528;13.346;2023-08-20T04:54:28;8.75;;;7.22;;
15317;SDS011;7759;52.528;13.346;2023-08-20T04:56:53;10.48;;;7.07;;
15317;SDS011;7759;52.528;13.346;2023-08-20T04:59:19;8.80;;;7.22;;
15317;SDS011;7759;52.528;13.346;2023-08-20T05:01:45;9.85;;;7.63;;
15317;SDS011;7759;52.528;13.346;2023-08-20T05:04:11;12.20;;;6.88;;
15317;SDS011;7759;52.528;13.346;2023-08-20T05:06:37;13.20;;;7.40;;
15317;SDS011;7759;52.528;13.346;2023-08-20T05:09:03;8.68;;;7.28;;
15317;SDS011;7759;52.528;13.346;2023-08-20T05:11:29;12.98;;;8.02;;
15317;SDS011;7759;52.528;13.346;2023-08-20T05:13:57;10.20;;;7.65;;
15317;SDS011;7759;52.528;13.346;2023-08-20T05:16:23;8.25;;;7.35;;
15317;SDS011;7759;52.528;13.346;2023-08-20T05:18:49;9.35;;;7.63;;
15317;SDS011;7759;52.528;13.346;2023-08-20T05:21:15;12.73;;;7.97;;
15317;SDS011;7759;52.528;13.346;2023-08-20T05:23:41;9.27;;;7.53;;
15317;SDS011;7759;52.528;13.346;2023-08-20T05:26:07;11.40;;;7.85;;
15317;SDS011;7759;52.528;13.346;2023-08-20T05:28:33;10.70;;;7.63;;
15317;SDS011;7759;52.528;13.346;2023-08-20T05:30:59;11.40;;;8.63;;
15317;SDS011;7759;52.528;13.346;2023-08-20T05:33:27;11.00;;;8.43;;
15317;SDS011;7759;52.528;13.346;2023-08-20T05:35:53;10.02;;;8.43;;
15317;SDS011;7759;52.528;13.346;2023-08-20T05:38:19;8.82;;;7.35;;
15317;SDS011;7759;52.528;13.346;2023-08-20T05:40:45;11.40;;;8.23;;
15317;SDS011;7759;52.528;13.346;2023-08-20T05:43:10;12.23;;;8.20;;
15317;SDS011;7759;52.528;13.346;2023-08-20T05:45:36;10.77;;;7.72;;
15317;SDS011;7759;52.528;13.346;2023-08-20T05:48:02;10.10;;;8.05;;
15317;SDS011;7759;52.528;13.346;2023-08-20T05:50:28;11.13;;;8.15;;
15317;SDS011;7759;52.528;13.346;2023-08-20T05:52:54;11.20;;;8.30;;
15317;SDS011;7759;52.528;13.346;2023-08-20T05:55:20;10.38;;;8.18;;
15317;SDS011;7759;52.528;13.346;2023-08-20T05:57:46;11.10;;;7.97;;
15317;SDS011;7759;52.528;13.346;2023-08-20T06:00:12;10.95;;;8.27;;
15317;SDS011;7759;52.528;13.346;2023-08-20T06:02:38;12.27;;;8.93;;
15317;SDS011;7759;52.528;13.346;2023-08-20T06:05:04;10.02;;;8.05;;
15317;SDS011;7759;52.528;13.346;2023-08-20T06:07:30;12.32;;;8.80;;
15317;SDS011;7759;52.528;13.346;2023-08-20T06:09:56;11.32;;;9.30;;
15317;SDS011;7759;52.528;13.346;2023-08-20T06:12:23;13.88;;;9.50;;
15317;SDS011;7759;52.528;13.346;2023-08-20T06:14:49;12.60;;;9.95;;
15317;SDS011;7759;52.528;13.346;2023-08-20T06:17:15;12.95;;;8.30;;
15317;SDS011;7759;52.528;13.346;2023-08-20T06:19:41;10.45;;;7.57;;
15317;SDS011;7759;52.528;13.346;2023-08-20T06:22:07;14.45;;;9.43;;
15317;SDS011;7759;52.528;13.346;2023-08-20T06:24:32;14.57;;;9.32;;
15317;SDS011;7759;52.528;13.346;2023-08-20T06:26:58;10.30;;;8.52;;
15317;SDS011;7759;52.528;13.346;2023-08-20T06:29:24;11.80;;;9.02;;
15317;SDS011;7759;52.528;13.346;2023-08-20T06:31:51;13.52;;;8.23;;
15317;SDS011;7759;52.528;13.346;2023-08-20T06:34:17;11.25;;;9.10;;
15317;SDS011;7759;52.528;13.346;2023-08-20T06:36:43;13.68;;;8.75;;
15317;SDS011;7759;52.528;13.346;2023-08-20T06:39:09;12.15;;;9.48;;
15317;SDS011;7759;52.528;13.346;2023-08-20T06:41:35;10.45;;;8.90;;
15317;SDS011;7759;52.528;13.346;2023-08-20T06:44:01;13.02;;;10.23;;
15317;SDS011;7759;52.528;13.346;2023-08-20T06:46:27;11.80;;;9.10;;
15317;SDS011;7759;52.528;13.346;2023-08-20T06:48:53;12.60;;;9.52;;
15317;SDS011;7759;52.528;13.346;2023-08-20T06:51:20;10.90;;;8.25;;
15317;SDS011;7759;52.528;13.346;2023-08-20T06:53:46;13.05;;;8.80;;
15317;SDS011;7759;52.528;13.346;2023-08-20T06:56:12;13.00;;;8.82;;
15317;SDS011;7759;52.528;13.346;2023-08-20T06:58:39;10.82;;;8.15;;
15317;SDS011;7759;52.528;13.346;2023-08-20T07:01:05;12.55;;;7.80;;
15317;SDS011;7759;52.528;13.346;2023-08-20T07:03:38;9.45;;;7.65;;
15317;SDS011;7759;52.528;13.346;2023-08-20T07:06:05;11.43;;;7.90;;
15317;SDS011;7759;52.528;13.346;2023-08-20T07:08:31;10.30;;;8.68;;
15317;SDS011;7759;52.528;13.346;2023-08-20T07:10:57;9.65;;;7.18;;
15317;SDS011;7759;52.528;13.346;2023-08-20T07:13:23;11.25;;;8.57;;
15317;SDS011;7759;52.528;13.346;2023-08-20T07:15:49;10.77;;;8.35;;
15317;SDS011;7759;52.528;13.346;2023-08-20T07:18:15;10.05;;;7.53;;
15317;SDS011;7759;52.528;13.346;2023-08-20T07:20:42;9.13;;;6.97;;
15317;SDS011;7759;52.528;13.346;2023-08-20T07:23:08;11.60;;;8.65;;
15317;SDS011;7759;52.528;13.346;2023-08-20T07:25:38;9.60;;;7.38;;
15317;SDS011;7759;52.528;13.346;2023-08-20T07:28:08;9.88;;;7.03;;
15317;SDS011;7759;52.528;13.346;2023-08-20T07:30:34;11.10;;;7.32;;
15317;SDS011;7759;52.528;13.346;2023-08-20T07:33:01;10.85;;;7.78;;
15317;SDS011;7759;52.528;13.346;2023-08-20T07:35:27;9.25;;;7.13;;
15317;SDS011;7759;52.528;13.346;2023-08-20T07:37:53;11.15;;;8.30;;
15317;SDS011;7759;52.528;13.346;2023-08-20T07:40:19;10.25;;;7.63;;
15317;SDS011;7759;52.528;13.346;2023-08-20T07:42:45;8.80;;;7.28;;
15317;SDS011;7759;52.528;13.346;2023-08-20T07:45:11;9.77;;;7.50;;
15317;SDS011;7759;52.528;13.346;2023-08-20T07:47:37;9.75;;;7.75;;
15317;SDS011;7759;52.528;13.346;2023-08-20T07:50:03;11.75;;;8.25;;
15317;SDS011;7759;52.528;13.346;2023-08-20T07:52:30;10.88;;;7.82;;
15317;SDS011;7759;52.528;13.346;2023-08-20T07:54:56;12.02;;;8.05;;
15317;SDS011;7759;52.528;13.346;2023-08-20T07:57:22;9.35;;;7.82;;
15317;SDS011;7759;52.528;13.346;2023-08-20T07:59:48;10.75;;;7.85;;
15317;SDS011;7759;52.528;13.346;2023-08-20T08:02:14;8.73;;;7.22;;
15317;SDS011;7759;52.528;13.346;2023-08-20T08:04:40;9.35;;;7.13;;
15317;SDS011;7759;52.528;13.346;2023-08-20T08:07:06;10.77;;;7.80;;
15317;SDS011;7759;52.528;13.346;2023-08-20T08:09:32;8.60;;;6.82;;
15317;SDS011;7759;52.528;13.346;2023-08-20T08:11:58;8.80;;;7.07;;
15317;SDS011;7759;52.528;13.346;2023-08-20T08:14:24;9.52;;;7.70;;
15317;SDS011;7759;52.528;13.346;2023-08-20T08:16:50;8.43;;;6.72;;
15317;SDS011;7759;52.528;13.346;2023-08-20T08:19:17;7.65;;;6.28;;
15317;SDS011;7759;52.528;13.346;2023-08-20T08:21:43;6.75;;;5.97;;
15317;SDS011;7759;52.528;13.346;2023-08-20T08:24:09;11.43;;;6.93;;
15317;SDS011;7759;52.528;13.346;2023-08-20T08:26:35;9.48;;;6.25;;
15317;SDS011;7759;52.528;13.346;2023-08-20T08:29:05;6.97;;;6.07;;
15317;SDS011;7759;52.528;13.346;2023-08-20T08:31:31;8.05;;;6.72;;
15317;SDS011;7759;52.528;13.346;2023-08-20T08:33:57;8.77;;;6.05;;
15317;SDS011;7759;52.528;13.346;2023-08-20T08:36:23;6.93;;;5.28;;
15317;SDS011;7759;52.528;13.346;2023-08-20T08:38:52;8.07;;;6.07;;
15317;SDS011;7759;52.528;13.346;2023-08-20T08:41:21;6.15;;;5.55;;
15317;SDS011;7759;52.528;13.346;2023-08-20T08:43:48;8.45;;;5.90;;
15317;SDS011;7759;52.528;13.346;2023-08-20T08:46:14;6.05;;;5.15;;
15317;SDS011;7759;52.528;13.346;2023-08-20T08:48:41;6.03;;;4.88;;
15317;SDS011;7759;52.528;13.346;2023-08-20T08:51:07;6.93;;;5.22;;
15317;SDS011;7759;52.528;13.346;2023-08-20T08:53:35;4.90;;;4.40;;
15317;SDS011;7759;52.528;13.346;2023-08-20T08:56:01;5.75;;;4.18;;
15317;SDS011;7759;52.528;13.346;2023-08-20T08:58:28;6.53;;;4.97;;
15317;SDS011;7759;52.528;13.346;2023-08-20T09:00:54;8.18;;;4.47;;
15317;SDS011;7759;52.528;13.346;2023-08-20T09:03:20;4.45;;;3.95;;
15317;SDS011;7759;52.528;13.346;2023-08-20T09:08:20;6.75;;;3.60;;
15317;SDS011;7759;52.528;13.346;2023-08-20T09:10:46;4.72;;;3.63;;
15317;SDS011;7759;52.528;13.346;2023-08-20T09:13:12;4.20;;;3.80;;
15317;SDS011;7759;52.528;13.346;2023-08-20T09:15:38;5.20;;;3.95;;
15317;SDS011;7759;52.528;13.346;2023-08-20T09:18:03;4.03;;;3.50;;
15317;SDS011;7759;52.528;13.346;2023-08-20T09:20:33;4.75;;;3.33;;
15317;SDS011;7759;52.528;13.346;2023-08-20T09:22:59;4.05;;;3.60;;
15317;SDS011;7759;52.528;13.346;2023-08-20T09:25:25;4.72;;;3.42;;
15317;SDS011;7759;52.528;13.346;2023-08-20T09:27:52;6.53;;;3.60;;
15317;SDS011;7759;52.528;13.346;2023-08-20T09:30:19;4.93;;;3.50;;
15317;SDS011;7759;52.528;13.346;2023-08-20T09:32:45;4.80;;;3.67;;
15317;SDS011;7759;52.528;13.346;2023-08-20T09:35:17;5.18;;;3.95;;
15317;SDS011;7759;52.528;13.346;2023-08-20T09:37:44;4.20;;;3.38;;
15317;SDS011;7759;52.528;13.346;2023-08-20T09:40:10;6.65;;;4.45;;
15317;SDS011;7759;52.528;13.346;2023-08-20T09:45:28;3.95;;;3.55;;
15317;SDS011;7759;52.528;13.346;2023-08-20T09:47:57;3.80;;;3.35;;
15317;SDS011;7759;52.528;13.346;2023-08-20T09:50:26;4.32;;;3.63;;
15317;SDS011;7759;52.528;13.346;2023-08-20T09:53:25;4.60;;;3.70;;
15317;SDS011;7759;52.528;13.346;2023-08-20T09:55:56;4.53;;;3.45;;
15317;SDS011;7759;52.528;13.346;2023-08-20T10:01:00;3.65;;;3.28;;
15317;SDS011;7759;52.528;13.346;2023-08-20T10:03:30;3.88;;;3.13;;
15317;SDS011;7759;52.528;13.346;2023-08-20T10:05:57;4.20;;;3.38;;
15317;SDS011;7759;52.528;13.346;2023-08-20T10:08:24;4.13;;;3.15;;
15317;SDS011;7759;52.528;13.346;2023-08-20T10:10:51;4.00;;;2.95;;
15317;SDS011;7759;52.528;13.346;2023-08-20T10:13:16;5.07;;;2.42;;
15317;SDS011;7759;52.528;13.346;2023-08-20T10:15:43;3.47;;;2.80;;
15317;SDS011;7759;52.528;13.346;2023-08-20T10:18:09;3.67;;;2.70;;
15317;SDS011;7759;52.528;13.346;2023-08-20T10:20:35;2.90;;;2.58;;
15317;SDS011;7759;52.528;13.346;2023-08-20T10:23:03;4.00;;;2.60;;
15317;SDS011;7759;52.528;13.346;2023-08-20T10:25:30;2.33;;;2.15;;
15317;SDS011;7759;52.528;13.346;2023-08-20T10:28:10;3.22;;;2.50;;
15317;SDS011;7759;52.528;13.346;2023-08-20T10:30:38;2.28;;;2.08;;
15317;SDS011;7759;52.528;13.346;2023-08-20T10:33:04;3.08;;;2.50;;
15317;SDS011;7759;52.528;13.346;2023-08-20T10:38:12;3.03;;;2.25;;
15317;SDS011;7759;52.528;13.346;2023-08-20T10:41:00;3.95;;;2.65;;
15317;SDS011;7759;52.528;13.346;2023-08-20T10:46:19;2.08;;;1.88;;
15317;SDS011;7759;52.528;13.346;2023-08-20T10:51:18;2.60;;;2.10;;
15317;SDS011;7759;52.528;13.346;2023-08-20T10:59:17;3.42;;;2.08;;
15317;SDS011;7759;52.528;13.346;2023-08-20T11:01:50;2.50;;;2.00;;
15317;SDS011;7759;52.528;13.346;2023-08-20T11:04:27;2.30;;;2.03;;
15317;SDS011;7759;52.528;13.346;2023-08-20T11:06:56;3.35;;;2.50;;
15317;SDS011;7759;52.528;13.346;2023-08-20T11:09:25;3.33;;;2.67;;
15317;SDS011;7759;52.528;13.346;2023-08-20T11:11:52;5.78;;;2.88;;
15317;SDS011;7759;52.528;13.346;2023-08-20T11:14:21;3.13;;;2.70;;
15317;SDS011;7759;52.528;13.346;2023-08-20T11:16:49;5.38;;;2.15;;
15317;SDS011;7759;52.528;13.346;2023-08-20T11:19:21;2.70;;;2.00;;
15317;SDS011;7759;52.528;13.346;2023-08-20T11:21:47;2.67;;;2.03;;
15317;SDS011;7759;52.528;13.346;2023-08-20T11:24:13;2.40;;;2.20;;
15317;SDS011;7759;52.528;13.346;2023-08-20T11:26:40;3.10;;;2.13;;
15317;SDS011;7759;52.528;13.346;2023-08-20T11:29:06;2.25;;;1.95;;
15317;SDS011;7759;52.528;13.346;2023-08-20T11:31:32;2.65;;;2.33;;
15317;SDS011;7759;52.528;13.346;2023-08-20T11:33:58;2.85;;;1.90;;
15317;SDS011;7759;52.528;13.346;2023-08-20T11:36:27;2.47;;;1.85;;
15317;SDS011;7759;52.528;13.346;2023-08-20T11:38:55;2.22;;;2.03;;
15317;SDS011;7759;52.528;13.346;2023-08-20T11:41:21;2.35;;;2.00;;
15317;SDS011;7759;52.528;13.346;2023-08-20T11:43:48;3.30;;;2.00;;
15317;SDS011;7759;52.528;13.346;2023-08-20T11:46:20;3.08;;;1.95;;
15317;SDS011;7759;52.528;13.346;2023-08-20T11:49:06;8.13;;;2.33;;
15317;SDS011;7759;52.528;13.346;2023-08-20T11:51:49;3.95;;;2.20;;
15317;SDS011;7759;52.528;13.346;2023-08-20T11:54:18;3.28;;;2.30;;
15317;SDS011;7759;52.528;13.346;2023-08-20T11:57:05;2.10;;;1.90;;
15317;SDS011;7759;52.528;13.346;2023-08-20T11:59:35;3.47;;;2.20;;
15317;SDS011;7759;52.528;13.346;2023-08-20T12:02:24;3.08;;;2.05;;
15317;SDS011;7759;52.528;13.346;2023-08-20T12:04:55;4.38;;;1.77;;
15317;SDS011;7759;52.528;13.346;2023-08-20T12:07:25;3.17;;;2.13;;
15317;SDS011;7759;52.528;13.346;2023-08-20T12:10:06;1.95;;;1.77;;
15317;SDS011;7759;52.528;13.346;2023-08-20T12:12:44;2.13;;;1.92;;
15317;SDS011;7759;52.528;13.346;2023-08-20T12:15:10;2.25;;;2.00;;
15317;SDS011;7759;52.528;13.346;2023-08-20T12:17:36;2.67;;;1.70;;
15317;SDS011;7759;52.528;13.346;2023-08-20T12:20:02;2.83;;;2.10;;
15317;SDS011;7759;52.528;13.346;2023-08-20T12:22:36;2.80;;;2.03;;
15317;SDS011;7759;52.528;13.346;2023-08-20T12:25:02;2.05;;;1.55;;
15317;SDS011;7759;52.528;13.346;2023-08-20T12:27:34;3.20;;;1.73;;
15317;SDS011;7759;52.528;13.346;2023-08-20T12:30:00;2.58;;;2.17;;
15317;SDS011;7759;52.528;13.346;2023-08-20T12:32:26;1.80;;;1.70;;
15317;SDS011;7759;52.528;13.346;2023-08-20T12:34:55;2.17;;;1.85;;
15317;SDS011;7759;52.528;13.346;2023-08-20T12:37:21;1.90;;;1.80;;
15317;SDS011;7759;52.528;13.346;2023-08-20T12:39:47;2.30;;;2.10;;
15317;SDS011;7759;52.528;13.346;2023-08-20T12:42:13;2.15;;;1.80;;
15317;SDS011;7759;52.528;13.346;2023-08-20T12:44:39;2.05;;;1.85;;
15317;SDS011;7759;52.528;13.346;2023-08-20T12:47:05;2.30;;;1.60;;
15317;SDS011;7759;52.528;13.346;2023-08-20T12:49:31;2.20;;;1.75;;
15317;SDS011;7759;52.528;13.346;2023-08-20T12:51:57;2.42;;;1.67;;
15317;SDS011;7759;52.528;13.346;2023-08-20T12:54:23;2.70;;;1.80;;
15317;SDS011;7759;52.528;13.346;2023-08-20T12:56:49;2.28;;;2.08;;
15317;SDS011;7759;52.528;13.346;2023-08-20T12:59:21;15.63;;;9.27;;
15317;SDS011;7759;52.528;13.346;2023-08-20T13:04:23;2.67;;;2.15;;
15317;SDS011;7759;52.528;13.346;2023-08-20T13:06:57;2.22;;;1.88;;
15317;SDS011;7759;52.528;13.346;2023-08-20T13:09:23;3.30;;;2.40;;
15317;SDS011;7759;52.528;13.346;2023-08-20T13:11:49;2.65;;;1.70;;
15317;SDS011;7759;52.528;13.346;2023-08-20T13:14:16;3.17;;;1.75;;
15317;SDS011;7759;52.528;13.346;2023-08-20T13:16:44;5.57;;;1.88;;
15317;SDS011;7759;52.528;13.346;2023-08-20T13:19:12;3.13;;;1.88;;
15317;SDS011;7759;52.528;13.346;2023-08-20T13:21:40;5.85;;;1.80;;
15317;SDS011;7759;52.528;13.346;2023-08-20T13:24:08;2.85;;;1.73;;
15317;SDS011;7759;52.528;13.346;2023-08-20T13:26:41;1.95;;;1.63;;
15317;SDS011;7759;52.528;13.346;2023-08-20T13:29:10;1.70;;;1.60;;
15317;SDS011;7759;52.528;13.346;2023-08-20T13:31:36;2.25;;;1.52;;
15317;SDS011;7759;52.528;13.346;2023-08-20T13:34:02;1.52;;;1.42;;
15317;SDS011;7759;52.528;13.346;2023-08-20T13:36:28;1.50;;;1.40;;
15317;SDS011;7759;52.528;13.346;2023-08-20T13:38:55;2.05;;;1.27;;
15317;SDS011;7759;52.528;13.346;2023-08-20T13:41:22;1.65;;;1.30;;
15317;SDS011;7759;52.528;13.346;2023-08-20T13:43:51;1.65;;;1.25;;
15317;SDS011;7759;52.528;13.346;2023-08-20T13:46:19;1.50;;;1.40;;
15317;SDS011;7759;52.528;13.346;2023-08-20T13:48:45;1.80;;;1.27;;
15317;SDS011;7759;52.528;13.346;2023-08-20T13:51:12;2.08;;;1.30;;
15317;SDS011;7759;52.528;13.346;2023-08-20T13:53:47;1.83;;;1.60;;
15317;SDS011;7759;52.528;13.346;2023-08-20T13:56:14;3.15;;;1.60;;
15317;SDS011;7759;52.528;13.346;2023-08-20T13:58:43;1.92;;;1.42;;
15317;SDS011;7759;52.528;13.346;2023-08-20T14:01:29;2.13;;;1.35;;
15317;SDS011;7759;52.528;13.346;2023-08-20T14:03:54;1.27;;;1.17;;
15317;SDS011;7759;52.528;13.346;2023-08-20T14:06:21;1.65;;;1.52;;
15317;SDS011;7759;52.528;13.346;2023-08-20T14:08:48;2.47;;;1.52;;
15317;SDS011;7759;52.528;13.346;2023-08-20T14:11:16;2.47;;;1.75;;
15317;SDS011;7759;52.528;13.346;2023-08-20T14:13:42;3.25;;;1.42;;
15317;SDS011;7759;52.528;13.346;2023-08-20T14:16:37;1.27;;;1.00;;
15317;SDS011;7759;52.528;13.346;2023-08-20T14:19:06;1.95;;;1.10;;
15317;SDS011;7759;52.528;13.346;2023-08-20T14:21:32;2.45;;;1.20;;
15317;SDS011;7759;52.528;13.346;2023-08-20T14:23:59;1.30;;;1.20;;
15317;SDS011;7759;52.528;13.346;2023-08-20T14:26:26;1.83;;;1.10;;
15317;SDS011;7759;52.528;13.346;2023-08-20T14:28:55;1.30;;;1.08;;
15317;SDS011;7759;52.528;13.346;2023-08-20T14:31:27;1.15;;;0.95;;
15317;SDS011;7759;52.528;13.346;2023-08-20T14:33:54;1.58;;;1.13;;
15317;SDS011;7759;52.528;13.346;2023-08-20T14:36:21;1.67;;;1.30;;
15317;SDS011;7759;52.528;13.346;2023-08-20T14:38:47;1.10;;;1.00;;
15317;SDS011;7759;52.528;13.346;2023-08-20T14:41:16;2.30;;;1.25;;
15317;SDS011;7759;52.528;13.346;2023-08-20T14:43:43;1.75;;;1.15;;
15317;SDS011;7759;52.528;13.346;2023-08-20T14:46:11;3.55;;;1.45;;
15317;SDS011;7759;52.528;13.346;2023-08-20T14:48:38;1.65;;;1.20;;
15317;SDS011;7759;52.528;13.346;2023-08-20T14:51:09;1.27;;;1.10;;
15317;SDS011;7759;52.528;13.346;2023-08-20T14:53:35;2.00;;;1.23;;
15317;SDS011;7759;52.528;13.346;2023-08-20T14:56:01;1.90;;;1.38;;
15317;SDS011;7759;52.528;13.346;2023-08-20T14:58:28;1.88;;;1.25;;
15317;SDS011;7759;52.528;13.346;2023-08-20T15:00:54;2.22;;;1.23;;
15317;SDS011;7759;52.528;13.346;2023-08-20T15:03:19;1.90;;;1.25;;
15317;SDS011;7759;52.528;13.346;2023-08-20T15:05:45;1.95;;;1.30;;
15317;SDS011;7759;52.528;13.346;2023-08-20T15:08:11;1.17;;;1.13;;
15317;SDS011;7759;52.528;13.346;2023-08-20T15:10:38;1.65;;;1.45;;
15317;SDS011;7759;52.528;13.346;2023-08-20T15:13:04;1.35;;;1.25;;